Time;durP1;ratioP1;P1;durP2;ratioP2;P2;SDS_P1;SDS_P2;PMS_P1;PMS_P2;Temp;Humidity;BMP_temperature;BMP_pressure;BME280_temperature;BME280_humidity;BME280_pressure;Samples;Min_cycle;Max_cycle;Signal;HPM_P1;HPM_P2
2022/11/11 00:01:16;;;;;;;14.13;10.35;;;;;;;7.23;100.00;102704.66;6151791;23;20006;-86
2022/11/11 00:03:42;;;;;;;14.77;10.35;;;;;;;7.23;100.00;102699.38;6153258;23;20064;-87
2022/11/11 00:06:13;;;;;;;16.08;11.13;;;;;;;7.23;100.00;102689.69;6154176;23;20009;-85
2022/11/11 00:08:39;;;;;;;14.98;10.55;;;;;;;7.32;100.00;102699.31;6153965;23;20070;-85
2022/11/11 00:11:08;;;;;;;15.35;9.93;;;;;;;7.31;100.00;102710.78;6126492;23;20597;-87
2022/11/11 00:13:34;;;;;;;17.85;11.10;;;;;;;7.41;100.00;102708.97;6153796;23;20005;-85
2022/11/11 00:16:11;;;;;;;17.05;10.57;;;;;;;7.48;100.00;102711.56;6152746;23;20009;-87
2022/11/11 00:27:04;;;;;;;15.77;10.65;;;;;;;7.69;100.00;102688.38;6151806;23;20020;-87
2022/11/11 00:29:30;;;;;;;15.80;11.20;;;;;;;7.77;100.00;102697.16;6154195;23;20005;-85
2022/11/11 00:34:39;;;;;;;15.05;11.10;;;;;;;7.84;100.00;102698.84;6153592;23;20508;-86
2022/11/11 00:37:04;;;;;;;14.07;11.07;;;;;;;7.86;100.00;102710.34;6151617;23;20033;-85
2022/11/11 00:39:29;;;;;;;16.02;10.40;;;;;;;7.87;100.00;102714.75;6153254;23;20290;-85
2022/11/11 00:41:54;;;;;;;15.50;11.82;;;;;;;7.92;100.00;102720.88;6151591;23;20013;-84
2022/11/11 00:44:20;;;;;;;14.32;11.95;;;;;;;7.90;100.00;102713.81;6124534;23;20607;-85
2022/11/11 00:52:13;;;;;;;;;;;;;;;8.04;100.00;102733.13;6151039;23;20478;-84
2022/11/11 00:54:38;;;;;;;15.37;11.80;;;;;;;7.93;100.00;102725.28;6151164;23;19999;-86
2022/11/11 00:57:04;;;;;;;16.00;12.25;;;;;;;7.99;100.00;102733.19;6151302;23;20232;-85
2022/11/11 00:59:29;;;;;;;15.57;12.70;;;;;;;7.92;100.00;102712.03;6152690;23;20009;-86
2022/11/11 01:01:54;;;;;;;16.55;12.50;;;;;;;7.94;100.00;102705.84;6153119;23;20771;-86
2022/11/11 01:04:22;;;;;;;18.20;13.05;;;;;;;7.99;100.00;102734.97;6155537;23;19993;-85
2022/11/11 01:06:47;;;;;;;15.77;12.95;;;;;;;7.97;100.00;102731.41;6172273;23;20012;-86
2022/11/11 01:09:12;;;;;;;18.05;14.02;;;;;;;8.01;100.00;102729.63;6154117;23;19997;-87
2022/11/11 01:11:37;;;;;;;15.27;13.23;;;;;;;8.01;100.00;102740.22;6175610;23;20036;-87
2022/11/11 01:14:03;;;;;;;16.13;14.25;;;;;;;7.99;100.00;102746.44;6164497;23;20412;-85
2022/11/11 01:16:28;;;;;;;17.65;13.55;;;;;;;8.01;100.00;102746.41;6159587;23;20020;-85
2022/11/11 01:18:54;;;;;;;17.63;13.68;;;;;;;8.06;100.00;102756.97;6157754;23;20017;-85
2022/11/11 01:21:22;;;;;;;20.67;14.32;;;;;;;8.02;100.00;102745.50;6134975;23;20459;-86
2022/11/11 01:23:49;;;;;;;17.45;14.20;;;;;;;8.07;100.00;102756.06;6161571;23;20388;-86
2022/11/11 01:26:18;;;;;;;18.15;14.75;;;;;;;7.99;100.00;102741.13;6152175;23;19997;-84
2022/11/11 01:28:43;;;;;;;18.90;15.13;;;;;;;8.06;100.00;102749.00;6152271;23;20066;-86
2022/11/11 01:31:15;;;;;;;18.50;14.60;;;;;;;8.05;100.00;102734.88;6153239;23;20081;-86
2022/11/11 01:33:42;;;;;;;17.20;14.82;;;;;;;8.06;100.00;102746.38;6153628;23;20013;-86
2022/11/11 01:36:11;;;;;;;19.35;14.88;;;;;;;8.07;100.00;102753.41;6153097;23;20029;-86
2022/11/11 01:38:37;;;;;;;18.33;14.90;;;;;;;8.03;100.00;102735.81;6151451;23;20037;-86
2022/11/11 01:41:31;;;;;;;19.48;14.57;;;;;;;8.04;100.00;102749.03;6126276;23;20025;-86
2022/11/11 01:43:50;;;;;;;21.23;15.30;;;;;;;8.06;100.00;102747.25;6151619;23;20352;-85
2022/11/11 01:46:26;;;;;;;19.02;14.60;;;;;;;8.06;100.00;102733.97;6151956;23;19997;-86
2022/11/11 01:51:44;;;;;;;18.63;15.43;;;;;;;8.06;100.00;102733.09;6151767;23;20024;-85
2022/11/11 01:54:39;;;;;;;20.75;15.40;;;;;;;8.07;100.00;102725.16;6150830;23;20021;-86
2022/11/11 01:57:14;;;;;;;20.02;15.80;;;;;;;8.06;100.00;102722.50;6136599;23;20009;-85
2022/11/11 01:59:42;;;;;;;18.38;15.00;;;;;;;8.04;100.00;102717.22;6153334;23;20009;-86
2022/11/11 02:02:23;;;;;;;21.80;15.90;;;;;;;8.05;100.00;102724.28;6152939;23;20033;-85
2022/11/11 02:07:35;;;;;;;20.25;15.55;;;;;;;8.02;100.00;102723.41;6152142;23;20021;-86
2022/11/11 02:10:04;;;;;;;21.15;15.38;;;;;;;8.05;100.00;102731.34;6152417;23;20009;-85
2022/11/11 02:15:13;;;;;;;;;;;;;;;8.09;100.00;102733.97;6151929;23;20076;-86
2022/11/11 02:17:39;;;;;;;19.73;15.50;;;;;;;8.02;100.00;102731.38;6153609;23;19908;-87
2022/11/11 02:20:07;;;;;;;16.05;13.82;;;;;;;8.03;100.00;102730.50;6154303;23;20009;-87
2022/11/11 02:22:45;;;;;;;17.77;14.85;;;;;;;7.99;100.00;102725.22;6155165;23;20018;-87
2022/11/11 02:25:13;;;;;;;18.10;15.75;;;;;;;7.99;100.00;102722.56;6167193;23;20146;-86
2022/11/11 02:27:41;;;;;;;20.55;15.15;;;;;;;8.01;100.00;102719.03;6169499;23;20015;-87
2022/11/11 02:30:14;;;;;;;19.67;16.20;;;;;;;8.01;100.00;102709.28;6171951;23;20012;-85
2022/11/11 02:32:46;;;;;;;17.58;14.60;;;;;;;8.01;100.00;102711.06;6151877;23;20006;-84
2022/11/11 02:35:15;;;;;;;20.10;15.73;;;;;;;8.00;100.00;102707.53;6127264;23;20012;-85
2022/11/11 02:37:44;;;;;;;19.73;15.93;;;;;;;7.97;100.00;102696.94;6152411;23;20056;-85
2022/11/11 02:40:13;;;;;;;19.27;14.85;;;;;;;7.95;100.00;102696.97;6127508;23;20084;-86
2022/11/11 02:42:38;;;;;;;18.80;15.45;;;;;;;7.96;100.00;102706.69;6154565;23;20014;-85
2022/11/11 02:45:04;;;;;;;18.10;15.32;;;;;;;7.98;100.00;102707.56;6155539;23;20118;-86
2022/11/11 02:47:29;;;;;;;20.17;15.63;;;;;;;7.98;100.00;102712.88;6154596;23;20076;-85
2022/11/11 02:49:55;;;;;;;20.27;15.02;;;;;;;7.97;100.00;102702.25;6152054;23;20021;-86
2022/11/11 02:52:20;;;;;;;17.98;15.40;;;;;;;7.95;100.00;102696.97;6151712;23;20009;-85
2022/11/11 02:54:46;;;;;;;19.48;14.38;;;;;;;7.93;100.00;102704.06;6153253;23;20377;-86
2022/11/11 02:57:11;;;;;;;23.67;15.45;;;;;;;7.96;100.00;102705.81;6151586;23;20005;-85
2022/11/11 02:59:40;;;;;;;19.77;14.68;;;;;;;7.89;100.00;102697.03;6152997;23;20076;-86
2022/11/11 03:02:06;;;;;;;19.23;14.73;;;;;;;7.93;100.00;102693.44;6152598;23;20016;-85
2022/11/11 03:04:32;;;;;;;20.42;15.70;;;;;;;7.88;100.00;102681.16;6125132;23;20002;-86
2022/11/11 03:06:58;;;;;;;17.88;14.95;;;;;;;7.85;100.00;102673.22;6150825;23;20008;-86
2022/11/11 03:09:23;;;;;;;16.92;14.93;;;;;;;7.86;100.00;102689.13;6152334;23;20491;-85
2022/11/11 03:11:48;;;;;;;17.85;13.55;;;;;;;7.89;100.00;102698.81;6153490;23;20387;-86
2022/11/11 03:14:14;;;;;;;19.30;14.93;;;;;;;7.87;100.00;102698.81;6152542;23;20006;-86
2022/11/11 03:19:23;;;;;;;17.42;15.07;;;;;;;7.84;100.00;102684.72;6153079;23;20058;-86
2022/11/11 03:21:48;;;;;;;20.42;14.38;;;;;;;7.85;100.00;102695.28;6152661;23;20313;-86
2022/11/11 03:24:13;;;;;;;18.67;15.48;;;;;;;7.81;100.00;102685.63;6152764;23;20008;-86
2022/11/11 03:26:39;;;;;;;20.80;15.27;;;;;;;7.82;100.00;102692.69;6150844;23;20070;-85
2022/11/11 03:29:04;;;;;;;24.05;17.52;;;;;;;7.80;100.00;102681.22;6151914;23;20431;-85
2022/11/11 03:31:29;;;;;;;20.73;16.58;;;;;;;7.74;100.00;102683.94;6128909;23;20273;-84
2022/11/11 03:33:55;;;;;;;21.17;18.58;;;;;;;7.78;100.00;102698.94;6126047;23;20009;-85
2022/11/11 03:38:14;;;;;;;24.17;18.73;;;;;;;7.73;100.00;102692.75;6125379;23;20037;-85
2022/11/11 03:39:05;;;;;;;26.02;19.23;;;;;;;7.74;100.00;102700.72;6153050;23;20001;-86
2022/11/11 03:41:31;;;;;;;27.15;19.65;;;;;;;7.74;100.00;102703.38;6151789;23;20009;-86
2022/11/11 03:43:56;;;;;;;25.98;19.98;;;;;;;7.71;100.00;102705.16;6152254;23;20045;-85
2022/11/11 03:46:21;;;;;;;27.02;19.60;;;;;;;7.67;100.00;102693.72;6125237;23;20006;-85
2022/11/11 03:48:46;;;;;;;22.33;17.75;;;;;;;7.65;100.00;102694.59;6151413;23;20609;-85
2022/11/11 03:51:12;;;;;;;22.35;18.05;;;;;;;7.64;100.00;102701.69;6160203;23;20001;-86
2022/11/11 03:53:37;;;;;;;19.67;16.88;;;;;;;7.62;100.00;102699.97;6141393;23;20028;-87
2022/11/11 03:56:02;;;;;;;20.38;16.10;;;;;;;7.58;100.00;102684.97;6172011;23;20068;-85
2022/11/11 03:58:28;;;;;;;19.65;15.27;;;;;;;7.61;100.00;102707.03;6170941;23;20065;-85
2022/11/11 04:00:54;;;;;;;18.88;15.75;;;;;;;7.62;100.00;102710.56;6128279;23;20005;-85
2022/11/11 04:11:39;;;;;;;16.88;13.57;;;;;;;7.44;100.00;102709.81;6159592;23;20067;-86
2022/11/11 04:16:51;;;;;;;16.45;13.23;;;;;;;7.25;100.00;102708.19;6151518;23;20043;-86
2022/11/11 04:22:00;;;;;;;20.10;15.43;;;;;;;7.10;100.00;102716.25;6152840;23;20036;-84
2022/11/11 04:27:12;;;;;;;19.55;16.25;;;;;;;6.91;100.00;102703.13;6152044;23;20027;-84
2022/11/11 04:29:38;;;;;;;20.38;16.50;;;;;;;6.88;100.00;102712.84;6152642;23;20002;-86
2022/11/11 04:34:58;;;;;;;22.33;16.95;;;;;;;6.71;100.00;102718.22;6153807;23;20055;-85
2022/11/11 04:37:25;;;;;;;23.15;18.17;;;;;;;6.65;100.00;102723.56;6151001;23;20842;-86
2022/11/11 04:42:35;;;;;;;31.50;21.98;;;;;;;6.45;100.00;102708.66;6152000;23;20027;-84
2022/11/11 04:48:06;;;;;;;31.20;21.60;;;;;;;6.43;100.00;102726.28;6150179;23;20500;-86
2022/11/11 04:50:36;;;;;;;27.20;21.85;;;;;;;6.38;100.00;102716.59;6125698;23;20106;-86
2022/11/11 04:53:04;;;;;;;30.08;23.10;;;;;;;6.27;100.00;102711.38;6152323;23;20352;-87
2022/11/11 04:58:14;;;;;;;30.40;23.23;;;;;;;6.21;100.00;102706.09;6152920;23;20351;-87
2022/11/11 05:00:40;;;;;;;32.88;23.75;;;;;;;6.18;100.00;102708.72;6162182;23;20008;-86
2022/11/11 05:03:15;;;;;;;29.00;22.30;;;;;;;6.13;100.00;102715.81;6167670;23;20006;-85
2022/11/11 05:08:55;;;;;;;28.77;22.13;;;;;;;6.01;100.00;102707.91;6161042;23;20016;-86
2022/11/11 05:11:25;;;;;;;28.70;21.35;;;;;;;6.02;100.00;102707.91;6153050;23;20001;-86
2022/11/11 05:22:28;;;;;;;30.17;22.38;;;;;;;5.92;100.00;102717.59;6155578;23;20462;-87
2022/11/11 05:27:37;;;;;;;31.05;23.17;;;;;;;5.86;100.00;102719.34;6153683;23;20067;-86
2022/11/11 05:30:04;;;;;;;32.30;23.45;;;;;;;5.84;100.00;102723.75;6151716;23;20036;-86
2022/11/11 05:32:29;;;;;;;35.28;24.48;;;;;;;5.81;100.00;102729.94;6153086;23;20072;-86
2022/11/11 05:34:55;;;;;;;36.33;26.13;;;;;;;5.80;100.00;102733.44;6153899;23;20412;-87
2022/11/11 05:37:20;;;;;;;36.97;25.20;;;;;;;5.79;100.00;102736.97;6154122;23;20006;-86
2022/11/11 05:39:46;;;;;;;34.83;24.42;;;;;;;5.74;100.00;102721.13;6154827;23;20005;-86
2022/11/11 05:42:11;;;;;;;34.20;25.10;;;;;;;5.68;100.00;102714.94;6152859;23;20056;-85
2022/11/11 05:44:37;;;;;;;35.97;24.98;;;;;;;5.72;100.00;102722.88;6151154;23;20094;-85
2022/11/11 05:47:02;;;;;;;30.83;23.45;;;;;;;5.69;100.00;102725.53;6124988;23;20016;-86
2022/11/11 05:49:28;;;;;;;35.03;23.20;;;;;;;5.69;100.00;102727.31;6152324;23;20080;-87
2022/11/11 05:51:56;;;;;;;32.28;22.90;;;;;;;5.62;100.00;102720.25;6128297;23;20009;-86
2022/11/11 05:54:22;;;;;;;29.23;21.88;;;;;;;5.65;100.00;102725.53;6154464;23;20033;-86
2022/11/11 05:56:48;;;;;;;33.13;23.85;;;;;;;5.53;100.00;102713.22;6150903;23;20027;-86
2022/11/11 05:59:14;;;;;;;32.03;23.65;;;;;;;5.56;100.00;102712.31;6152947;23;20013;-87
2022/11/11 06:01:39;;;;;;;32.72;23.13;;;;;;;5.61;100.00;102726.41;6125454;23;20016;-85
2022/11/11 06:04:05;;;;;;;32.05;22.10;;;;;;;5.56;100.00;102713.22;6125346;23;20143;-85
2022/11/11 06:06:31;;;;;;;31.48;22.70;;;;;;;5.59;100.00;102720.25;6152446;23;20083;-86
2022/11/11 06:08:56;;;;;;;31.17;22.20;;;;;;;5.54;100.00;102722.88;6153186;23;20006;-86
2022/11/11 06:11:22;;;;;;;34.90;23.05;;;;;;;5.50;100.00;102719.38;6151083;23;20084;-85
2022/11/11 06:13:47;;;;;;;33.97;23.55;;;;;;;5.54;100.00;102729.94;6126553;23;20029;-86
2022/11/11 06:16:13;;;;;;;34.53;22.50;;;;;;;5.40;100.00;102720.25;6124459;23;20443;-86
2022/11/11 06:18:38;;;;;;;34.70;22.27;;;;;;;5.47;100.00;102736.97;6148112;23;20006;-84
2022/11/11 06:21:04;;;;;;;35.08;22.38;;;;;;;5.46;100.00;102744.00;6149985;23;20017;-84
2022/11/11 06:23:30;;;;;;;29.23;21.83;;;;;;;5.36;100.00;102736.09;6151433;23;20029;-85
2022/11/11 06:26:13;;;;;;;30.38;20.88;;;;;;;5.41;100.00;102747.53;6150546;23;20006;-87
2022/11/11 06:28:47;;;;;;;29.03;20.30;;;;;;;5.40;100.00;102743.16;6150791;23;20520;-85
2022/11/11 06:31:23;;;;;;;27.63;20.50;;;;;;;5.40;100.00;102749.31;6150805;23;20006;-85
2022/11/11 06:33:49;;;;;;;30.08;20.08;;;;;;;5.37;100.00;102741.38;6153159;23;20006;-85
2022/11/11 06:36:17;;;;;;;31.02;19.98;;;;;;;5.38;100.00;102750.16;6166311;23;20419;-87
2022/11/11 06:38:43;;;;;;;28.67;19.38;;;;;;;5.40;100.00;102761.63;6168461;23;19998;-86
2022/11/11 06:41:13;;;;;;;24.25;19.02;;;;;;;5.40;100.00;102770.44;6168362;23;20124;-86
2022/11/11 06:43:39;;;;;;;26.27;19.60;;;;;;;5.39;100.00;102768.69;6154512;23;20030;-86
2022/11/11 06:46:04;;;;;;;27.60;18.52;;;;;;;5.38;100.00;102777.44;6151743;23;20024;-85
2022/11/11 06:48:30;;;;;;;24.73;19.05;;;;;;;5.36;100.00;102773.94;6154260;23;20010;-86
2022/11/11 06:51:02;;;;;;;29.88;20.08;;;;;;;5.38;100.00;102773.94;6154516;23;20376;-85
2022/11/11 06:53:28;;;;;;;35.78;21.13;;;;;;;5.34;100.00;102765.13;6132599;23;20009;-84
2022/11/11 06:55:54;;;;;;;26.27;18.63;;;;;;;5.36;100.00;102767.78;6154132;23;20097;-86
2022/11/11 06:58:20;;;;;;;27.60;18.85;;;;;;;5.37;100.00;102774.81;6157211;23;20326;-86
2022/11/11 07:00:46;;;;;;;29.42;18.33;;;;;;;5.38;100.00;102773.94;6153810;23;20441;-86
2022/11/11 07:03:14;;;;;;;28.58;18.10;;;;;;;5.36;100.00;102773.94;6152199;23;20097;-87
2022/11/11 07:05:41;;;;;;;25.05;17.98;;;;;;;5.36;100.00;102775.72;6152671;23;19998;-86
2022/11/11 07:08:17;;;;;;;30.30;18.67;;;;;;;5.34;100.00;102775.69;6154739;23;20446;-85
2022/11/11 07:10:45;;;;;;;26.15;18.02;;;;;;;5.36;100.00;102781.88;6156254;23;20063;-86
2022/11/11 07:13:11;;;;;;;24.02;17.08;;;;;;;5.39;100.00;102780.97;6127753;23;20001;-87
2022/11/11 07:15:36;;;;;;;25.77;17.23;;;;;;;5.37;100.00;102780.97;6154141;23;20016;-87
2022/11/11 07:18:02;;;;;;;22.15;15.90;;;;;;;5.41;100.00;102784.50;6128083;23;20021;-84
2022/11/11 07:20:28;;;;;;;20.67;15.10;;;;;;;5.41;100.00;102779.22;6155900;23;20047;-88
2022/11/11 07:22:53;;;;;;;22.40;15.15;;;;;;;5.37;100.00;102780.09;6152219;23;20024;-87
2022/11/11 07:25:18;;;;;;;27.42;16.63;;;;;;;5.37;100.00;102775.69;6127293;23;20006;-87
2022/11/11 07:27:44;;;;;;;20.13;13.30;;;;;;;5.41;100.00;102782.75;6154788;23;20029;-87
2022/11/11 07:30:10;;;;;;;18.35;13.68;;;;;;;5.42;100.00;102778.34;6153554;23;19997;-86
2022/11/11 07:32:36;;;;;;;16.58;12.95;;;;;;;5.47;100.00;102788.03;6155304;23;20005;-86
2022/11/11 07:35:02;;;;;;;15.77;12.63;;;;;;;5.48;100.00;102789.81;6168890;23;20009;-87
2022/11/11 07:37:29;;;;;;;15.98;12.20;;;;;;;5.50;100.00;102795.97;6173947;23;20009;-86
2022/11/11 07:39:55;;;;;;;17.50;12.85;;;;;;;5.46;100.00;102782.75;6168794;23;20014;-87
2022/11/11 07:42:20;;;;;;;17.83;12.80;;;;;;;5.53;100.00;102797.72;6153653;23;20013;-85
2022/11/11 07:44:45;;;;;;;17.35;12.75;;;;;;;5.55;100.00;102798.59;6154447;23;20023;-85
2022/11/11 07:47:11;;;;;;;15.10;11.68;;;;;;;5.63;100.00;102809.19;6153660;23;20009;-86
2022/11/11 07:49:36;;;;;;;18.80;12.40;;;;;;;5.66;100.00;102818.00;6154768;23;20017;-87
2022/11/11 07:52:01;;;;;;;15.57;11.25;;;;;;;5.72;100.00;102817.09;6155042;23;20491;-86
2022/11/11 07:54:27;;;;;;;13.20;10.38;;;;;;;5.73;100.00;102814.50;6153586;23;20013;-86
2022/11/11 07:56:52;;;;;;;13.43;10.07;;;;;;;5.76;100.00;102810.94;6153562;23;20059;-87
2022/11/11 07:59:17;;;;;;;13.90;9.30;;;;;;;5.81;100.00;102811.84;6154601;23;20009;-87
2022/11/11 08:01:43;;;;;;;11.93;9.18;;;;;;;5.85;100.00;102821.53;6154508;23;20112;-86
2022/11/11 08:04:08;;;;;;;12.45;9.85;;;;;;;5.86;100.00;102822.44;6125099;23;20021;-86
2022/11/11 08:06:33;;;;;;;12.75;9.45;;;;;;;5.93;100.00;102834.78;6123497;23;20001;-86
2022/11/11 08:08:58;;;;;;;13.43;9.27;;;;;;;5.94;100.00;102826.88;6151300;23;20017;-86
2022/11/11 08:14:08;;;;;;;12.40;9.23;;;;;;;5.99;100.00;102824.22;6150866;23;20016;-87
2022/11/11 08:16:33;;;;;;;10.35;8.88;;;;;;;6.08;100.00;102828.63;6152810;23;20009;-86
2022/11/11 08:18:59;;;;;;;12.02;9.45;;;;;;;6.09;100.00;102828.59;6125643;23;20009;-86
2022/11/11 08:21:24;;;;;;;11.73;9.15;;;;;;;6.12;100.00;102828.59;6150916;23;20029;-86
2022/11/11 08:23:50;;;;;;;11.55;8.60;;;;;;;6.14;100.00;102833.88;6124883;23;20041;-87
2022/11/11 08:26:16;;;;;;;9.85;7.85;;;;;;;6.22;100.00;102840.94;6148667;23;20001;-85
2022/11/11 08:28:42;;;;;;;9.38;8.35;;;;;;;6.21;100.00;102846.22;6124285;23;20511;-86
2022/11/11 08:31:08;;;;;;;9.90;7.82;;;;;;;6.27;100.00;102848.88;6149918;23;20095;-85
2022/11/11 08:33:34;;;;;;;12.85;7.95;;;;;;;6.27;100.00;102845.31;6150753;23;20452;-85
2022/11/11 08:36:01;;;;;;;10.23;7.78;;;;;;;6.40;100.00;102855.91;6125988;23;20009;-85
2022/11/11 08:38:26;;;;;;;10.63;7.88;;;;;;;6.44;100.00;102859.44;6152332;23;20250;-85
2022/11/11 08:40:51;;;;;;;10.05;7.80;;;;;;;6.51;100.00;102861.16;6152292;23;20006;-85
2022/11/11 08:43:17;;;;;;;11.48;7.97;;;;;;;6.55;100.00;102854.13;6151274;23;20321;-85
2022/11/11 08:45:43;;;;;;;8.48;7.18;;;;;;;6.63;100.00;102860.28;6151363;23;20006;-86
2022/11/11 08:48:09;;;;;;;9.02;7.57;;;;;;;6.68;100.00;102859.38;6151146;23;20005;-87
2022/11/11 08:50:36;;;;;;;7.50;6.60;;;;;;;6.70;100.00;102862.91;6151656;23;20038;-87
2022/11/11 08:53:02;;;;;;;8.50;6.90;;;;;;;6.73;100.00;102854.97;6125392;23;20009;-86
2022/11/11 08:55:27;;;;;;;6.22;5.60;;;;;;;6.77;100.00;102854.94;6150194;23;20037;-86
2022/11/11 08:57:57;;;;;;;6.97;5.85;;;;;;;6.89;100.00;102876.06;6153235;23;20032;-86
2022/11/11 09:00:23;;;;;;;7.15;5.53;;;;;;;6.91;100.00;102859.31;6151866;23;20428;-86
2022/11/11 09:02:48;;;;;;;6.38;4.82;;;;;;;6.99;100.00;102857.53;6152972;23;20522;-85
2022/11/11 09:05:13;;;;;;;6.40;5.38;;;;;;;7.09;100.00;102865.41;6152221;23;20119;-85
2022/11/11 09:07:39;;;;;;;7.13;5.10;;;;;;;7.14;100.00;102872.44;6154752;23;20029;-86
2022/11/11 09:10:05;;;;;;;6.78;5.22;;;;;;;7.20;100.00;102861.84;6152350;23;20005;-86
2022/11/11 09:12:30;;;;;;;6.45;5.07;;;;;;;7.28;100.00;102866.22;6153759;23;20009;-84
2022/11/11 09:14:55;;;;;;;7.93;5.22;;;;;;;7.35;100.00;102862.66;6153355;23;20002;-86
2022/11/11 09:17:20;;;;;;;7.55;5.68;;;;;;;7.41;100.00;102865.28;6140365;23;20012;-86
2022/11/11 09:19:46;;;;;;;5.97;5.25;;;;;;;7.52;100.00;102875.78;6158922;23;20539;-86
2022/11/11 09:22:11;;;;;;;7.30;4.95;;;;;;;7.56;100.00;102878.41;6157064;23;20018;-86
2022/11/11 09:24:36;;;;;;;7.70;5.25;;;;;;;7.59;99.98;102870.47;6158809;23;20001;-86
2022/11/11 09:27:02;;;;;;;5.88;4.93;;;;;;;7.63;99.57;102874.84;6161520;23;20505;-86
2022/11/11 09:29:27;;;;;;;8.43;5.05;;;;;;;7.71;99.67;102874.81;6159085;23;20076;-85
2022/11/11 09:31:52;;;;;;;6.38;4.90;;;;;;;7.80;99.27;102871.22;6153040;23;20001;-87
2022/11/11 09:34:18;;;;;;;7.00;5.55;;;;;;;7.92;98.88;102873.78;6127772;23;20012;-86
2022/11/11 09:36:43;;;;;;;6.35;5.05;;;;;;;7.95;98.73;102876.41;6153325;23;20076;-86
2022/11/11 09:39:09;;;;;;;6.15;4.50;;;;;;;8.01;98.77;102880.78;6151742;23;20327;-87
2022/11/11 09:42:02;;;;;;;6.43;5.10;;;;;;;8.09;97.79;102885.13;6153496;23;20470;-87
2022/11/11 09:44:40;;;;;;;6.57;5.00;;;;;;;8.14;97.13;102893.94;6125154;23;20064;-85
2022/11/11 09:47:29;;;;;;;7.47;5.43;;;;;;;8.23;97.43;102891.22;6152203;23;20013;-85
2022/11/11 09:50:08;;;;;;;5.13;4.63;;;;;;;8.28;96.50;102874.34;6125883;23;20416;-85
2022/11/11 09:52:42;;;;;;;5.80;5.07;;;;;;;8.37;95.38;102895.56;6151477;23;20017;-86
2022/11/11 09:55:24;;;;;;;6.93;5.38;;;;;;;8.38;95.42;102884.91;6122944;23;20045;-87
2022/11/11 09:58:00;;;;;;;6.47;5.10;;;;;;;8.45;95.55;102888.41;6152186;23;20054;-86
2022/11/11 10:00:28;;;;;;;6.22;5.47;;;;;;;8.51;94.83;102884.81;6126405;23;20009;-86
2022/11/11 10:03:00;;;;;;;6.55;4.93;;;;;;;8.62;94.36;102886.47;6151149;23;20005;-86
2022/11/11 10:05:32;;;;;;;7.82;5.25;;;;;;;8.77;93.42;102889.84;6158273;23;19998;-86
2022/11/11 10:08:09;;;;;;;5.30;4.80;;;;;;;8.83;93.39;102895.97;6168760;23;20006;-87
2022/11/11 10:10:48;;;;;;;8.00;5.35;;;;;;;8.95;93.44;102900.28;6168462;23;20025;-86
2022/11/11 10:13:18;;;;;;;6.88;4.68;;;;;;;9.03;92.29;102894.84;6161782;23;20001;-86
2022/11/11 10:16:05;;;;;;;9.00;5.90;;;;;;;9.09;92.67;102879.75;6153375;23;20029;-86
2022/11/11 10:19:00;;;;;;;5.93;5.20;;;;;;;9.17;92.04;102879.66;6153472;23;20128;-87
2022/11/11 10:21:30;;;;;;;;;;;;;;;9.45;92.57;102891.69;6118789;23;20014;-87
2022/11/11 10:24:00;;;;;;;5.88;5.03;;;;;;;9.41;89.89;102883.78;6127813;23;19970;-86
2022/11/11 10:26:44;;;;;;;6.47;5.03;;;;;;;9.53;90.34;102886.25;6154241;23;19998;-86
2022/11/11 10:29:16;;;;;;;6.97;4.78;;;;;;;9.59;88.80;102883.50;6152787;23;20001;-85
2022/11/11 10:31:42;;;;;;;6.78;4.78;;;;;;;9.73;87.10;102888.63;6152119;23;20443;-86
2022/11/11 10:34:13;;;;;;;6.10;5.38;;;;;;;9.87;88.21;102899.06;6151071;23;20420;-87
2022/11/11 10:36:55;;;;;;;7.10;4.45;;;;;;;9.97;86.81;102896.22;6152154;23;20016;-86
2022/11/11 10:39:45;;;;;;;8.48;5.25;;;;;;;10.05;87.21;102898.78;6154146;23;20020;-87
2022/11/11 10:42:17;;;;;;;5.95;4.47;;;;;;;10.14;86.69;102897.75;6125899;23;20024;-86
2022/11/11 10:44:43;;;;;;;6.25;4.03;;;;;;;10.30;84.90;102888.63;6148437;23;20004;-86
2022/11/11 10:47:25;;;;;;;6.22;4.22;;;;;;;10.46;84.46;102894.56;6152216;23;20049;-86
2022/11/11 10:50:03;;;;;;;6.47;4.35;;;;;;;10.50;84.52;102896.28;6151775;23;20016;-85
2022/11/11 10:52:38;;;;;;;7.47;4.93;;;;;;;10.56;83.22;102895.28;6126231;23;20450;-85
2022/11/11 10:55:07;;;;;;;5.30;3.80;;;;;;;10.66;82.89;102903.09;6125193;23;20109;-87
2022/11/11 10:57:54;;;;;;;8.18;4.28;;;;;;;10.77;82.11;102902.00;6126215;23;20053;-85
2022/11/11 11:00:20;;;;;;;4.70;3.50;;;;;;;10.76;82.32;102892.25;6128963;23;20012;-87
2022/11/11 11:03:22;;;;;;;5.40;3.97;;;;;;;10.86;83.34;102897.34;6149681;23;20006;-86
2022/11/11 11:05:54;;;;;;;6.13;4.07;;;;;;;10.91;82.53;102891.94;6149817;23;20005;-86
2022/11/11 11:08:27;;;;;;;4.55;3.70;;;;;;;11.08;81.64;102897.84;6126687;23;20005;-86
2022/11/11 11:10:58;;;;;;;6.55;3.35;;;;;;;11.08;80.61;102896.97;6148156;23;20344;-85
2022/11/11 11:13:39;;;;;;;4.57;3.60;;;;;;;11.11;81.02;102888.88;6124712;23;20454;-87
2022/11/11 11:16:28;;;;;;;5.15;2.95;;;;;;;11.20;82.03;102883.34;6151886;23;20047;-87
2022/11/11 11:19:12;;;;;;;5.03;3.00;;;;;;;11.33;81.78;102879.53;6124589;23;20335;-86
2022/11/11 11:21:58;;;;;;;4.25;3.00;;;;;;;11.42;81.50;102887.34;6151814;23;20013;-85
2022/11/11 11:24:30;;;;;;;4.47;3.30;;;;;;;11.45;79.73;102884.63;6124411;23;20010;-84
2022/11/11 11:26:58;;;;;;;5.53;3.47;;;;;;;11.51;78.87;102880.91;6150592;23;20001;-84
2022/11/11 11:29:41;;;;;;;4.18;3.25;;;;;;;11.61;79.33;102878.91;6150880;23;20009;-86
2022/11/11 11:32:14;;;;;;;3.85;3.30;;;;;;;11.65;78.57;102878.81;6150236;23;20415;-86
2022/11/11 11:34:55;;;;;;;4.75;3.22;;;;;;;11.72;78.93;102877.75;6151795;23;20080;-84
2022/11/11 11:37:24;;;;;;;4.13;2.80;;;;;;;11.83;77.97;102874.88;6152337;23;20020;-84
2022/11/11 11:40:02;;;;;;;4.22;2.92;;;;;;;11.95;77.44;102869.25;6152777;23;20491;-86
2022/11/11 11:42:33;;;;;;;4.28;2.80;;;;;;;11.99;77.21;102870.03;6151982;23;20009;-86
2022/11/11 11:45:31;;;;;;;4.22;2.72;;;;;;;12.11;77.63;102859.06;6154159;23;20001;-85
2022/11/11 11:48:19;;;;;;;5.13;3.35;;;;;;;12.11;77.44;102872.41;6128330;23;20005;-85
2022/11/11 11:50:50;;;;;;;3.55;2.55;;;;;;;12.15;75.17;102865.19;6159311;23;20016;-86
2022/11/11 11:53:21;;;;;;;3.78;2.80;;;;;;;12.10;75.01;102851.97;6161588;23;20001;-86
2022/11/11 11:56:26;;;;;;;4.15;2.80;;;;;;;12.11;76.15;102844.84;6169161;23;20012;-85
2022/11/11 11:59:00;;;;;;;3.88;2.60;;;;;;;12.20;74.60;102855.28;6151250;23;20018;-85
2022/11/11 12:01:41;;;;;;;4.35;3.03;;;;;;;12.18;75.48;102844.66;6125555;23;20001;-87
2022/11/11 12:04:12;;;;;;;4.50;2.50;;;;;;;12.33;74.35;102863.84;6151517;23;20564;-86
2022/11/11 12:07:10;;;;;;;5.50;2.60;;;;;;;12.37;73.66;102860.16;6154160;23;20052;-85
2022/11/11 12:09:44;;;;;;;3.75;2.67;;;;;;;12.40;74.57;102855.63;6153057;23;20013;-87
2022/11/11 12:12:31;;;;;;;4.85;2.72;;;;;;;12.37;73.02;102866.41;6153224;23;20002;-86
2022/11/11 12:15:13;;;;;;;3.45;2.58;;;;;;;12.41;73.94;102852.03;6152521;23;20045;-87
2022/11/11 12:17:47;;;;;;;3.83;2.85;;;;;;;12.49;73.25;102853.63;6150587;23;20040;-85
2022/11/11 12:20:12;;;;;;;;;;;;;;;12.67;75.85;102853.16;6151413;23;20556;-86
2022/11/11 12:23:02;;;;;;;3.03;2.60;;;;;;;12.59;74.16;102842.69;6151034;23;19991;-86
2022/11/11 12:25:49;;;;;;;3.13;2.50;;;;;;;12.57;72.84;102840.94;6151859;23;20009;-86
2022/11/11 12:28:38;;;;;;;3.47;2.53;;;;;;;12.62;73.01;102841.69;6149598;23;20060;-86
2022/11/11 12:31:43;;;;;;;4.35;2.70;;;;;;;12.64;74.02;102832.72;6151044;23;20080;-88
2022/11/11 12:34:42;;;;;;;2.65;2.20;;;;;;;12.63;73.26;102839.00;6150582;23;20050;-86
2022/11/11 12:37:22;;;;;;;3.20;2.30;;;;;;;12.58;73.93;102826.66;6152676;23;20060;-86
2022/11/11 12:40:03;;;;;;;2.85;2.05;;;;;;;12.58;73.47;102832.91;6171522;23;20413;-86
2022/11/11 12:42:53;;;;;;;2.58;2.38;;;;;;;12.60;75.06;102827.53;6173371;23;20012;-86